Airfield :
LOGIN :

Register | Disclaimer

   EN    FR    IT 

 










Legend :    VFR   Marginal VFR   IFR   Intensive IFR   Very Intensive IFR
Visi :
Ceiling :
>= 8 km
>= 3000ft
5 to 8 km
1000 to 3000 ft
1500m to 5 km
500 to 1000 ft
800 to 1500m
200 to 500 ft
< 800m
< 200 ft
Symbols :   Thunderstorms  Fog  Heavy snow  Heavy precipitations  Wind > 20 kt
SIGMETs :     Misc.  Thunderstorms  Icing  Turbulence  Mountain Waves  Volcanic Ashes







- Airport Elevation : 122 ft
- IATA code : TXL


EDDT - Berlin Tegel Int.

CURRENT METAR :
  • 251150Z 24019KT 9999 FEW040CB SCT070 15/11 Q1004 TEMPO 27025G40KT

EXPIRED METARs :
  • 251120Z 26018KT 230V290 9999 -SHRA FEW020 FEW030CB BKN050 14/12 Q1005 RERA TEMPO 27025G40KT
  • 251050Z 23021KT 9999 VCTS -SHRA SCT040CB BKN050 18/09 Q1004 TEMPO 23020G35KT SHRA
  • 251020Z 24022KT 9999 SCT040CB BKN100 18/09 Q1004 TEMPO 24020G35KT SHRA
  • 250950Z 24020G30KT 9999 FEW038 BKN080 18/09 Q1004 NOSIG
  • 250920Z 22015KT CAVOK 17/10 Q1004 BECMG 23015G25KT

TAF TAF EDDT
Valid from the 25 at 12:00 until the 26 at 12:00 UTC


251100Z 2512/2612 25020G35KT 9999 BKN040
TEMPO 2512/2516 27025G45KT SHRA BKN020CB
BECMG 2516/2518 30009KT
BECMG 2518/2521 22003KT
BECMG 2606/2608 25012KT
TEMPO 2608/2612 25015G30KT SHRA BKN020CB
No reported NOTAMs for that airfield.



MET'MAP, your aeronautical weather chart ! - Copyright ORBIFLY December 2007 - Disclaimer

ORBIFLY MET'MAP TEAM :

Programming & Development : Alexandra Zaïnal
Concept & Development : Baudouin d'Aumeries
Co-Development & Prog : Marc-Olivier Méhu
Technical & hardware support : Manuel Goepfert

Contact : metmap@orbifly.com




SOURCES & CREDITS :

   NOAA